Time;durP1;ratioP1;P1;durP2;ratioP2;P2;SDS_P1;SDS_P2;PMS_P1;PMS_P2;Temp;Humidity;BMP_temperature;BMP_pressure;BME280_temperature;BME280_humidity;BME280_pressure;Samples;Min_cycle;Max_cycle;Signal;HPM_P1;HPM_P2
2022/12/16 00:01:05;;;;;;;58.35;24.45;;;-2.80;52.10;;;;;;5021305;28;20409;-86
2022/12/16 00:03:33;;;;;;;55.97;24.83;;;-2.80;52.10;;;;;;5022893;28;20060;-86
2022/12/16 00:06:03;;;;;;;56.63;23.85;;;-2.80;52.00;;;;;;5019606;28;20053;-86
2022/12/16 00:08:33;;;;;;;52.70;23.42;;;-2.80;51.90;;;;;;5021720;28;20053;-86
2022/12/16 00:11:00;;;;;;;55.75;24.27;;;-2.80;51.80;;;;;;5022313;28;20049;-86
2022/12/16 00:13:29;;;;;;;54.65;24.13;;;-2.80;51.80;;;;;;5021108;28;20503;-86
2022/12/16 00:15:56;;;;;;;54.10;22.70;;;-2.80;51.80;;;;;;5021924;28;20053;-87
2022/12/16 00:18:24;;;;;;;56.17;24.20;;;-2.80;51.80;;;;;;5022012;28;20061;-86
2022/12/16 00:20:54;;;;;;;51.83;22.88;;;-2.80;51.90;;;;;;5020816;28;20507;-86
2022/12/16 00:23:22;;;;;;;49.35;22.25;;;-2.80;51.90;;;;;;5020028;28;20393;-86
2022/12/16 00:25:49;;;;;;;58.22;25.38;;;-2.80;52.00;;;;;;5020030;28;20057;-86
2022/12/16 00:28:21;;;;;;;53.70;23.35;;;-2.80;52.00;;;;;;5020818;28;20409;-85
2022/12/16 00:30:49;;;;;;;60.75;23.60;;;-2.80;52.00;;;;;;5022167;28;20086;-87
2022/12/16 00:33:17;;;;;;;48.22;22.08;;;-2.80;52.00;;;;;;5020185;28;20636;-86
2022/12/16 00:35:44;;;;;;;49.78;22.15;;;-2.80;52.00;;;;;;5020091;28;20409;-85
2022/12/16 00:38:13;;;;;;;48.30;21.38;;;-2.80;52.00;;;;;;5022082;28;20408;-85
2022/12/16 00:40:41;;;;;;;49.05;22.92;;;-2.80;52.00;;;;;;5021627;28;20056;-85
2022/12/16 00:43:08;;;;;;;53.67;22.52;;;-2.80;51.90;;;;;;5019253;28;20057;-85
2022/12/16 00:45:36;;;;;;;53.15;22.20;;;-2.80;52.00;;;;;;5020488;28;20069;-85
2022/12/16 00:48:04;;;;;;;54.80;22.75;;;-2.80;52.00;;;;;;5020727;28;20434;-85
2022/12/16 00:50:31;;;;;;;54.15;23.85;;;-2.80;51.90;;;;;;5020259;28;20473;-86
2022/12/16 00:52:59;;;;;;;55.75;24.65;;;-2.80;51.90;;;;;;5018808;28;20054;-86
2022/12/16 00:55:27;;;;;;;53.47;22.67;;;-2.80;51.90;;;;;;5020849;28;20046;-86
2022/12/16 00:57:55;;;;;;;54.08;24.42;;;-2.80;51.90;;;;;;5020413;28;20473;-86
2022/12/16 01:00:23;;;;;;;60.83;26.90;;;-2.80;51.90;;;;;;5020529;28;20072;-86
2022/12/16 01:02:51;;;;;;;63.05;27.33;;;-2.80;51.90;;;;;;5021416;28;20049;-85
2022/12/16 01:05:21;;;;;;;52.30;24.83;;;-2.80;51.90;;;;;;5020164;28;20064;-86
2022/12/16 01:07:48;;;;;;;56.67;23.38;;;-2.80;51.80;;;;;;5021378;28;20054;-87
2022/12/16 01:10:16;;;;;;;52.90;23.50;;;-2.80;51.80;;;;;;5020539;28;20751;-86
2022/12/16 01:12:44;;;;;;;51.95;22.80;;;-2.90;51.90;;;;;;5021560;28;20584;-86
2022/12/16 01:15:13;;;;;;;52.78;22.80;;;-2.90;51.90;;;;;;5018144;28;20060;-86
2022/12/16 01:17:41;;;;;;;50.92;23.02;;;-2.90;52.00;;;;;;5019973;28;20057;-86
2022/12/16 01:20:10;;;;;;;54.05;22.40;;;-2.90;52.10;;;;;;5020501;28;20049;-86
2022/12/16 01:22:37;;;;;;;59.05;24.80;;;-2.90;52.10;;;;;;5016827;28;20722;-86
2022/12/16 01:25:06;;;;;;;55.92;23.92;;;-2.90;52.10;;;;;;5011976;28;20058;-86
2022/12/16 01:27:33;;;;;;;63.13;24.90;;;-2.90;51.90;;;;;;5020894;28;20400;-85
2022/12/16 01:30:02;;;;;;;58.60;24.52;;;-2.90;51.90;;;;;;5019989;28;20412;-86
2022/12/16 01:32:30;;;;;;;63.42;25.17;;;-2.90;51.90;;;;;;5020682;28;20520;-85
2022/12/16 01:34:57;;;;;;;58.15;24.90;;;-2.90;51.90;;;;;;5020385;28;20061;-87
2022/12/16 01:37:24;;;;;;;59.75;24.83;;;-2.90;51.90;;;;;;5018767;28;20060;-85
2022/12/16 01:39:52;;;;;;;55.92;24.42;;;-2.90;51.90;;;;;;5019024;28;20054;-86
2022/12/16 01:42:22;;;;;;;58.10;22.90;;;-2.90;51.80;;;;;;5020358;28;20053;-86
2022/12/16 01:44:53;;;;;;;63.05;26.23;;;-3.00;51.80;;;;;;5018517;28;20492;-86
2022/12/16 01:47:26;;;;;;;72.07;26.63;;;-3.00;51.90;;;;;;5019904;28;20045;-86
2022/12/16 01:49:57;;;;;;;77.00;29.00;;;-2.90;52.00;;;;;;5019355;28;20041;-86
2022/12/16 01:52:29;;;;;;;65.97;25.67;;;-3.00;52.10;;;;;;5020517;28;20432;-86
2022/12/16 01:55:02;;;;;;;67.80;26.67;;;-3.00;52.20;;;;;;5015860;28;20069;-86
2022/12/16 01:57:36;;;;;;;64.72;25.80;;;-2.90;52.30;;;;;;5020515;28;20470;-86
2022/12/16 02:00:09;;;;;;;60.72;24.52;;;-2.90;52.50;;;;;;5018082;28;20063;-86
2022/12/16 02:02:38;;;;;;;67.63;26.52;;;-2.90;52.50;;;;;;5021353;28;20072;-88
2022/12/16 02:05:21;;;;;;;63.67;25.88;;;-2.90;52.60;;;;;;5016078;28;20087;-88
2022/12/16 02:07:58;;;;;;;54.53;23.63;;;-2.90;52.70;;;;;;5017956;28;20413;-86
2022/12/16 02:10:35;;;;;;;56.33;23.50;;;-2.90;52.80;;;;;;5019601;28;20058;-89
2022/12/16 02:13:08;;;;;;;57.78;23.02;;;-2.90;52.80;;;;;;5020222;28;20041;-87
2022/12/16 02:15:41;;;;;;;55.78;24.63;;;-2.80;52.90;;;;;;5015911;28;20068;-88
2022/12/16 02:18:19;;;;;;;53.15;23.08;;;-2.80;52.90;;;;;;5019125;28;20061;-87
2022/12/16 02:21:26;;;;;;;52.08;22.75;;;-2.80;52.80;;;;;;5020276;28;20050;-88
2022/12/16 02:24:39;;;;;;;57.40;22.98;;;-2.80;52.80;;;;;;5018200;28;20054;-87
2022/12/16 02:27:37;;;;;;;59.67;22.75;;;-2.80;52.70;;;;;;5017981;28;20049;-88
2022/12/16 02:30:08;;;;;;;55.72;22.38;;;-2.80;52.60;;;;;;5015903;28;20061;-87
2022/12/16 02:32:51;;;;;;;54.70;23.60;;;-2.80;52.60;;;;;;5019228;28;20527;-88
2022/12/16 02:35:27;;;;;;;55.45;22.58;;;-2.80;52.50;;;;;;5017386;28;20053;-88
2022/12/16 02:38:07;;;;;;;50.40;21.98;;;-2.80;52.50;;;;;;5015239;28;20335;-87
2022/12/16 02:40:46;;;;;;;53.55;22.20;;;-2.80;52.40;;;;;;5015413;28;20270;-89
2022/12/16 02:43:19;;;;;;;53.75;23.10;;;-2.80;52.50;;;;;;5019753;28;20065;-88
2022/12/16 02:45:47;;;;;;;56.92;22.92;;;-2.80;52.50;;;;;;5018811;28;20064;-88
2022/12/16 02:48:15;;;;;;;49.90;20.55;;;-2.80;52.50;;;;;;5018936;28;20488;-86
2022/12/16 02:50:48;;;;;;;49.10;20.17;;;-2.80;52.60;;;;;;5018861;28;20493;-88
2022/12/16 02:53:16;;;;;;;48.60;21.00;;;-2.70;52.70;;;;;;5019590;28;20061;-86
2022/12/16 02:55:53;;;;;;;50.90;23.02;;;-2.80;52.70;;;;;;5019675;28;20500;-89
2022/12/16 02:58:28;;;;;;;49.42;22.38;;;-2.70;52.80;;;;;;5017001;28;20488;-88
2022/12/16 03:01:03;;;;;;;50.97;22.13;;;-2.70;52.70;;;;;;5018139;28;20060;-89
2022/12/16 03:03:37;;;;;;;63.85;25.63;;;-2.70;52.60;;;;;;5018965;28;20424;-87
2022/12/16 03:06:05;;;;;;;53.58;22.40;;;-2.80;52.50;;;;;;5018981;28;20509;-88
2022/12/16 03:08:37;;;;;;;61.03;24.83;;;-2.80;52.40;;;;;;5015598;28;20053;-88
2022/12/16 03:11:07;;;;;;;50.95;22.65;;;-2.70;52.40;;;;;;5021832;28;20053;-87
2022/12/16 03:13:41;;;;;;;49.17;20.35;;;-2.70;52.50;;;;;;5023819;28;21054;-86
2022/12/16 03:16:11;;;;;;;52.17;22.40;;;-2.80;52.50;;;;;;5021773;28;20053;-86
2022/12/16 03:18:44;;;;;;;48.55;21.23;;;-2.80;52.60;;;;;;5023295;28;20500;-87
2022/12/16 03:21:12;;;;;;;53.33;21.90;;;-2.80;52.70;;;;;;5023569;28;20590;-86
2022/12/16 03:23:45;;;;;;;54.05;23.17;;;-2.70;52.70;;;;;;5021395;28;20054;-86
2022/12/16 03:26:16;;;;;;;54.60;22.85;;;-2.70;52.80;;;;;;5023213;28;20045;-86
2022/12/16 03:28:50;;;;;;;53.88;22.98;;;-2.80;52.70;;;;;;5023070;28;20054;-88
2022/12/16 03:31:29;;;;;;;50.00;22.02;;;-2.70;52.60;;;;;;5021699;28;20060;-87
2022/12/16 03:34:03;;;;;;;55.22;22.65;;;-2.70;52.50;;;;;;5021718;28;20428;-86
2022/12/16 03:36:32;;;;;;;;;;;-2.70;52.40;;;;;;5023436;28;20409;-87
2022/12/16 03:39:00;;;;;;;51.50;21.60;;;-2.70;52.50;;;;;;5021034;28;19924;-85
2022/12/16 03:41:30;;;;;;;55.53;23.13;;;-2.70;52.40;;;;;;5022645;28;20053;-86
2022/12/16 03:43:57;;;;;;;56.63;23.65;;;-2.70;52.30;;;;;;5022217;28;20065;-86
2022/12/16 03:46:25;;;;;;;53.03;23.13;;;-2.70;52.20;;;;;;5023664;28;20528;-86
2022/12/16 03:48:52;;;;;;;52.30;22.55;;;-2.80;52.10;;;;;;5021708;28;20053;-86
2022/12/16 03:51:21;;;;;;;50.13;20.52;;;-2.80;52.10;;;;;;5020701;28;20488;-86
2022/12/16 03:53:48;;;;;;;55.05;22.92;;;-2.80;52.20;;;;;;5019326;28;20508;-86
2022/12/16 03:56:16;;;;;;;53.45;20.98;;;-2.80;52.20;;;;;;5022654;28;20417;-86
2022/12/16 03:58:43;;;;;;;51.47;21.60;;;-2.90;52.10;;;;;;5022124;28;20049;-86
2022/12/16 04:01:11;;;;;;;46.03;21.02;;;-2.80;52.20;;;;;;5020881;28;20497;-87
2022/12/16 04:03:38;;;;;;;58.65;23.52;;;-2.80;52.30;;;;;;5017684;28;20053;-87
2022/12/16 04:06:06;;;;;;;50.33;20.73;;;-2.90;52.20;;;;;;5022425;28;20060;-86
2022/12/16 04:08:35;;;;;;;49.10;20.63;;;-2.90;52.20;;;;;;5020162;28;20049;-87
2022/12/16 04:25:03;;;;;;;54.72;23.08;;;-2.90;52.50;;;;;;5024696;28;20061;-86
2022/12/16 04:27:30;;;;;;;55.78;22.10;;;-2.90;52.40;;;;;;5019443;28;20057;-86
